Terminal Aerodrome Forecast
Issued by NWS

Home | Current Version | Previous Version | Graphics & Text | Print | Product List | Glossary On
Versions: 1 2 3 4 5 6 7 8 9 10 11 12 13 14 15 16 17
000
FTUS45 KGGW 230534
TAFGDV
TAF
KGDV 230534Z 2306/2406 06013KT P6SM SCT030 BKN060
     FM231100 08012KT P6SM OVC020
     FM231800 10013KT P6SM SCT030 BKN060
     FM240000 09014KT P6SM VCSH BKN090=

USA.gov is the U.S. government's official web portal to all federal, state and local government web resources and services.